sensor_id;sensor_type;location;lat;lon;timestamp;P1;durP1;ratioP1;P2;durP2;ratioP2
54464;SDS011;40374;49.480;20.016;2022-08-19T00:01:23;29.65;;;19.60;;
54464;SDS011;40374;49.480;20.016;2022-08-19T00:03:59;33.15;;;19.42;;
54464;SDS011;40374;49.480;20.016;2022-08-19T00:06:27;27.88;;;18.83;;
54464;SDS011;40374;49.480;20.016;2022-08-19T00:08:55;29.98;;;18.73;;
54464;SDS011;40374;49.480;20.016;2022-08-19T00:11:23;32.35;;;18.10;;
54464;SDS011;40374;49.480;20.016;2022-08-19T00:13:53;28.70;;;18.70;;
54464;SDS011;40374;49.480;20.016;2022-08-19T00:16:22;24.42;;;17.33;;
54464;SDS011;40374;49.480;20.016;2022-08-19T00:18:55;26.70;;;17.00;;
54464;SDS011;40374;49.480;20.016;2022-08-19T00:21:23;24.45;;;16.42;;
54464;SDS011;40374;49.480;20.016;2022-08-19T00:23:51;18.83;;;14.07;;
54464;SDS011;40374;49.480;20.016;2022-08-19T00:26:19;24.20;;;16.10;;
54464;SDS011;40374;49.480;20.016;2022-08-19T00:28:47;27.77;;;19.58;;
54464;SDS011;40374;49.480;20.016;2022-08-19T00:31:14;24.83;;;19.08;;
54464;SDS011;40374;49.480;20.016;2022-08-19T00:33:42;26.02;;;19.08;;
54464;SDS011;40374;49.480;20.016;2022-08-19T00:36:10;31.30;;;21.20;;
54464;SDS011;40374;49.480;20.016;2022-08-19T00:38:38;26.48;;;19.60;;
54464;SDS011;40374;49.480;20.016;2022-08-19T00:41:09;29.80;;;19.27;;
54464;SDS011;40374;49.480;20.016;2022-08-19T00:43:37;32.75;;;18.10;;
54464;SDS011;40374;49.480;20.016;2022-08-19T00:46:05;24.30;;;16.83;;
54464;SDS011;40374;49.480;20.016;2022-08-19T00:48:34;27.60;;;16.55;;
54464;SDS011;40374;49.480;20.016;2022-08-19T00:51:03;30.45;;;19.70;;
54464;SDS011;40374;49.480;20.016;2022-08-19T00:53:31;32.67;;;19.60;;
54464;SDS011;40374;49.480;20.016;2022-08-19T00:56:01;32.75;;;21.15;;
54464;SDS011;40374;49.480;20.016;2022-08-19T00:58:30;32.45;;;22.35;;
54464;SDS011;40374;49.480;20.016;2022-08-19T01:00:59;31.60;;;20.15;;
54464;SDS011;40374;49.480;20.016;2022-08-19T01:03:28;23.85;;;18.70;;
54464;SDS011;40374;49.480;20.016;2022-08-19T01:06:15;26.60;;;16.88;;
54464;SDS011;40374;49.480;20.016;2022-08-19T01:08:46;19.00;;;13.20;;
54464;SDS011;40374;49.480;20.016;2022-08-19T01:11:15;22.75;;;15.13;;
54464;SDS011;40374;49.480;20.016;2022-08-19T01:13:43;18.25;;;15.02;;
54464;SDS011;40374;49.480;20.016;2022-08-19T01:16:17;26.38;;;17.77;;
54464;SDS011;40374;49.480;20.016;2022-08-19T01:18:44;27.35;;;17.48;;
54464;SDS011;40374;49.480;20.016;2022-08-19T01:21:16;25.45;;;18.45;;
54464;SDS011;40374;49.480;20.016;2022-08-19T01:23:45;32.08;;;20.60;;
54464;SDS011;40374;49.480;20.016;2022-08-19T01:26:17;28.77;;;19.10;;
54464;SDS011;40374;49.480;20.016;2022-08-19T01:28:46;31.70;;;20.60;;
54464;SDS011;40374;49.480;20.016;2022-08-19T01:31:18;25.10;;;19.10;;
54464;SDS011;40374;49.480;20.016;2022-08-19T01:33:54;29.85;;;20.23;;
54464;SDS011;40374;49.480;20.016;2022-08-19T01:36:30;36.50;;;22.90;;
54464;SDS011;40374;49.480;20.016;2022-08-19T01:38:58;32.40;;;22.27;;
54464;SDS011;40374;49.480;20.016;2022-08-19T01:41:26;33.20;;;23.27;;
54464;SDS011;40374;49.480;20.016;2022-08-19T01:43:53;32.35;;;23.48;;
54464;SDS011;40374;49.480;20.016;2022-08-19T01:46:42;36.47;;;24.90;;
54464;SDS011;40374;49.480;20.016;2022-08-19T01:49:09;29.38;;;22.85;;
54464;SDS011;40374;49.480;20.016;2022-08-19T01:51:36;27.40;;;20.35;;
54464;SDS011;40374;49.480;20.016;2022-08-19T01:54:10;33.55;;;21.90;;
54464;SDS011;40374;49.480;20.016;2022-08-19T01:56:38;35.70;;;21.75;;
54464;SDS011;40374;49.480;20.016;2022-08-19T01:59:10;28.55;;;21.85;;
54464;SDS011;40374;49.480;20.016;2022-08-19T02:01:39;34.38;;;22.25;;
54464;SDS011;40374;49.480;20.016;2022-08-19T02:04:07;34.75;;;22.75;;
54464;SDS011;40374;49.480;20.016;2022-08-19T02:06:34;37.60;;;21.05;;
54464;SDS011;40374;49.480;20.016;2022-08-19T02:09:03;30.02;;;22.83;;
54464;SDS011;40374;49.480;20.016;2022-08-19T02:11:32;32.90;;;22.23;;
54464;SDS011;40374;49.480;20.016;2022-08-19T02:14:01;34.08;;;22.25;;
54464;SDS011;40374;49.480;20.016;2022-08-19T02:16:29;23.52;;;18.08;;
54464;SDS011;40374;49.480;20.016;2022-08-19T02:18:57;22.60;;;16.77;;
54464;SDS011;40374;49.480;20.016;2022-08-19T02:21:27;22.17;;;15.63;;
54464;SDS011;40374;49.480;20.016;2022-08-19T02:23:55;20.83;;;15.63;;
54464;SDS011;40374;49.480;20.016;2022-08-19T02:26:23;25.17;;;16.45;;
54464;SDS011;40374;49.480;20.016;2022-08-19T02:28:50;18.65;;;14.18;;
54464;SDS011;40374;49.480;20.016;2022-08-19T02:31:19;17.10;;;13.65;;
54464;SDS011;40374;49.480;20.016;2022-08-19T02:33:47;17.70;;;12.55;;
54464;SDS011;40374;49.480;20.016;2022-08-19T02:36:15;22.33;;;14.02;;
54464;SDS011;40374;49.480;20.016;2022-08-19T02:38:47;21.25;;;14.43;;
54464;SDS011;40374;49.480;20.016;2022-08-19T02:41:22;21.50;;;14.68;;
54464;SDS011;40374;49.480;20.016;2022-08-19T02:43:53;22.50;;;17.42;;
54464;SDS011;40374;49.480;20.016;2022-08-19T02:46:41;31.15;;;19.35;;
54464;SDS011;40374;49.480;20.016;2022-08-19T02:49:08;21.58;;;17.55;;
54464;SDS011;40374;49.480;20.016;2022-08-19T02:51:37;24.05;;;16.98;;
54464;SDS011;40374;49.480;20.016;2022-08-19T02:54:05;20.88;;;15.05;;
54464;SDS011;40374;49.480;20.016;2022-08-19T02:56:34;22.83;;;16.38;;
54464;SDS011;40374;49.480;20.016;2022-08-19T02:59:03;21.30;;;15.18;;
54464;SDS011;40374;49.480;20.016;2022-08-19T03:01:37;20.83;;;15.35;;
54464;SDS011;40374;49.480;20.016;2022-08-19T03:04:09;21.20;;;14.68;;
54464;SDS011;40374;49.480;20.016;2022-08-19T03:06:37;21.05;;;14.77;;
54464;SDS011;40374;49.480;20.016;2022-08-19T03:09:05;20.77;;;15.85;;
54464;SDS011;40374;49.480;20.016;2022-08-19T03:11:33;23.40;;;15.75;;
54464;SDS011;40374;49.480;20.016;2022-08-19T03:14:00;25.88;;;15.48;;
54464;SDS011;40374;49.480;20.016;2022-08-19T03:16:29;24.17;;;16.05;;
54464;SDS011;40374;49.480;20.016;2022-08-19T03:19:00;22.50;;;15.70;;
54464;SDS011;40374;49.480;20.016;2022-08-19T03:21:29;25.88;;;18.42;;
54464;SDS011;40374;49.480;20.016;2022-08-19T03:23:57;29.48;;;18.60;;
54464;SDS011;40374;49.480;20.016;2022-08-19T03:26:28;31.17;;;21.10;;
54464;SDS011;40374;49.480;20.016;2022-08-19T03:28:56;39.22;;;22.90;;
54464;SDS011;40374;49.480;20.016;2022-08-19T03:31:25;38.03;;;23.42;;
54464;SDS011;40374;49.480;20.016;2022-08-19T03:34:14;41.45;;;23.67;;
54464;SDS011;40374;49.480;20.016;2022-08-19T03:36:42;38.97;;;23.85;;
54464;SDS011;40374;49.480;20.016;2022-08-19T03:39:10;39.92;;;24.35;;
54464;SDS011;40374;49.480;20.016;2022-08-19T03:41:38;39.67;;;25.95;;
54464;SDS011;40374;49.480;20.016;2022-08-19T03:44:12;38.75;;;24.83;;
54464;SDS011;40374;49.480;20.016;2022-08-19T03:46:44;33.17;;;21.90;;
54464;SDS011;40374;49.480;20.016;2022-08-19T03:49:12;34.28;;;20.15;;
54464;SDS011;40374;49.480;20.016;2022-08-19T03:51:40;24.08;;;16.80;;
54464;SDS011;40374;49.480;20.016;2022-08-19T03:54:09;23.52;;;15.70;;
54464;SDS011;40374;49.480;20.016;2022-08-19T03:56:38;31.00;;;15.27;;
54464;SDS011;40374;49.480;20.016;2022-08-19T03:59:06;28.65;;;17.88;;
54464;SDS011;40374;49.480;20.016;2022-08-19T04:01:34;25.17;;;15.98;;
54464;SDS011;40374;49.480;20.016;2022-08-19T04:04:02;25.30;;;17.52;;
54464;SDS011;40374;49.480;20.016;2022-08-19T04:06:34;26.63;;;16.77;;
54464;SDS011;40374;49.480;20.016;2022-08-19T04:09:06;24.48;;;17.17;;
54464;SDS011;40374;49.480;20.016;2022-08-19T04:11:42;26.67;;;18.95;;
54464;SDS011;40374;49.480;20.016;2022-08-19T04:14:12;34.22;;;20.77;;
54464;SDS011;40374;49.480;20.016;2022-08-19T04:16:41;33.97;;;20.17;;
54464;SDS011;40374;49.480;20.016;2022-08-19T04:19:09;27.77;;;20.55;;
54464;SDS011;40374;49.480;20.016;2022-08-19T04:21:37;31.98;;;21.15;;
54464;SDS011;40374;49.480;20.016;2022-08-19T04:24:04;35.22;;;21.63;;
54464;SDS011;40374;49.480;20.016;2022-08-19T04:26:36;35.70;;;22.65;;
54464;SDS011;40374;49.480;20.016;2022-08-19T04:29:06;35.45;;;21.92;;
54464;SDS011;40374;49.480;20.016;2022-08-19T04:31:38;33.47;;;22.95;;
54464;SDS011;40374;49.480;20.016;2022-08-19T04:34:08;38.13;;;23.48;;
54464;SDS011;40374;49.480;20.016;2022-08-19T04:36:38;47.20;;;30.45;;
54464;SDS011;40374;49.480;20.016;2022-08-19T04:39:08;55.47;;;36.80;;
54464;SDS011;40374;49.480;20.016;2022-08-19T04:41:36;67.00;;;42.70;;
54464;SDS011;40374;49.480;20.016;2022-08-19T04:44:22;61.03;;;40.60;;
54464;SDS011;40374;49.480;20.016;2022-08-19T04:46:50;53.92;;;35.63;;
54464;SDS011;40374;49.480;20.016;2022-08-19T04:49:19;41.03;;;28.23;;
54464;SDS011;40374;49.480;20.016;2022-08-19T04:51:46;35.08;;;24.38;;
54464;SDS011;40374;49.480;20.016;2022-08-19T04:54:15;32.83;;;23.70;;
54464;SDS011;40374;49.480;20.016;2022-08-19T04:57:02;29.17;;;20.98;;
54464;SDS011;40374;49.480;20.016;2022-08-19T04:59:33;28.60;;;20.40;;
54464;SDS011;40374;49.480;20.016;2022-08-19T05:02:02;31.13;;;20.05;;
54464;SDS011;40374;49.480;20.016;2022-08-19T05:04:30;35.05;;;19.80;;
54464;SDS011;40374;49.480;20.016;2022-08-19T05:06:59;25.67;;;19.90;;
54464;SDS011;40374;49.480;20.016;2022-08-19T05:09:28;28.67;;;19.65;;
54464;SDS011;40374;49.480;20.016;2022-08-19T05:12:16;28.73;;;20.80;;
54464;SDS011;40374;49.480;20.016;2022-08-19T05:14:44;27.38;;;20.63;;
54464;SDS011;40374;49.480;20.016;2022-08-19T05:17:13;29.50;;;21.58;;
54464;SDS011;40374;49.480;20.016;2022-08-19T05:20:00;31.63;;;20.00;;
54464;SDS011;40374;49.480;20.016;2022-08-19T05:22:47;31.17;;;19.02;;
54464;SDS011;40374;49.480;20.016;2022-08-19T05:25:16;29.08;;;19.73;;
54464;SDS011;40374;49.480;20.016;2022-08-19T05:27:45;42.92;;;20.05;;
54464;SDS011;40374;49.480;20.016;2022-08-19T05:30:13;45.78;;;20.10;;
54464;SDS011;40374;49.480;20.016;2022-08-19T05:32:40;40.05;;;19.70;;
54464;SDS011;40374;49.480;20.016;2022-08-19T05:35:07;31.38;;;19.08;;
54464;SDS011;40374;49.480;20.016;2022-08-19T05:37:35;47.28;;;20.10;;
54464;SDS011;40374;49.480;20.016;2022-08-19T05:40:03;45.50;;;19.08;;
54464;SDS011;40374;49.480;20.016;2022-08-19T05:42:31;25.23;;;17.92;;
54464;SDS011;40374;49.480;20.016;2022-08-19T05:44:58;42.08;;;22.20;;
54464;SDS011;40374;49.480;20.016;2022-08-19T05:47:25;45.60;;;22.08;;
54464;SDS011;40374;49.480;20.016;2022-08-19T05:49:54;39.17;;;22.52;;
54464;SDS011;40374;49.480;20.016;2022-08-19T05:52:21;32.45;;;20.15;;
54464;SDS011;40374;49.480;20.016;2022-08-19T05:54:52;37.20;;;22.85;;
54464;SDS011;40374;49.480;20.016;2022-08-19T05:57:23;30.17;;;17.50;;
54464;SDS011;40374;49.480;20.016;2022-08-19T05:59:50;32.85;;;17.88;;
54464;SDS011;40374;49.480;20.016;2022-08-19T06:02:25;36.63;;;16.20;;
54464;SDS011;40374;49.480;20.016;2022-08-19T06:04:53;30.58;;;17.10;;
54464;SDS011;40374;49.480;20.016;2022-08-19T06:07:20;26.27;;;14.68;;
54464;SDS011;40374;49.480;20.016;2022-08-19T06:09:48;28.30;;;16.83;;
54464;SDS011;40374;49.480;20.016;2022-08-19T06:12:27;31.27;;;17.55;;
54464;SDS011;40374;49.480;20.016;2022-08-19T06:14:55;33.90;;;20.20;;
54464;SDS011;40374;49.480;20.016;2022-08-19T06:17:27;40.80;;;17.67;;
54464;SDS011;40374;49.480;20.016;2022-08-19T06:19:54;33.17;;;20.13;;
54464;SDS011;40374;49.480;20.016;2022-08-19T06:22:22;39.30;;;20.20;;
54464;SDS011;40374;49.480;20.016;2022-08-19T06:24:49;39.35;;;17.65;;
54464;SDS011;40374;49.480;20.016;2022-08-19T06:27:19;33.13;;;15.52;;
54464;SDS011;40374;49.480;20.016;2022-08-19T06:29:47;48.35;;;17.45;;
54464;SDS011;40374;49.480;20.016;2022-08-19T06:32:15;37.22;;;17.20;;
54464;SDS011;40374;49.480;20.016;2022-08-19T06:34:43;38.10;;;16.42;;
54464;SDS011;40374;49.480;20.016;2022-08-19T06:37:11;26.20;;;16.17;;
54464;SDS011;40374;49.480;20.016;2022-08-19T06:39:40;26.15;;;16.60;;
54464;SDS011;40374;49.480;20.016;2022-08-19T06:42:08;33.00;;;15.77;;
54464;SDS011;40374;49.480;20.016;2022-08-19T06:44:39;37.50;;;16.80;;
54464;SDS011;40374;49.480;20.016;2022-08-19T06:47:10;31.17;;;17.15;;
54464;SDS011;40374;49.480;20.016;2022-08-19T06:49:41;29.67;;;15.57;;
54464;SDS011;40374;49.480;20.016;2022-08-19T06:52:10;29.00;;;15.85;;
54464;SDS011;40374;49.480;20.016;2022-08-19T06:54:40;26.45;;;14.27;;
54464;SDS011;40374;49.480;20.016;2022-08-19T06:57:25;27.45;;;14.93;;
54464;SDS011;40374;49.480;20.016;2022-08-19T06:59:53;26.80;;;15.05;;
54464;SDS011;40374;49.480;20.016;2022-08-19T07:02:20;22.02;;;14.95;;
54464;SDS011;40374;49.480;20.016;2022-08-19T07:04:48;21.13;;;13.40;;
54464;SDS011;40374;49.480;20.016;2022-08-19T07:07:18;33.95;;;14.15;;
54464;SDS011;40374;49.480;20.016;2022-08-19T07:09:48;23.75;;;14.13;;
54464;SDS011;40374;49.480;20.016;2022-08-19T07:12:27;21.55;;;13.27;;
54464;SDS011;40374;49.480;20.016;2022-08-19T07:14:57;33.28;;;13.13;;
54464;SDS011;40374;49.480;20.016;2022-08-19T07:17:27;27.45;;;13.90;;
54464;SDS011;40374;49.480;20.016;2022-08-19T07:19:54;22.95;;;14.20;;
54464;SDS011;40374;49.480;20.016;2022-08-19T07:22:22;18.90;;;13.07;;
54464;SDS011;40374;49.480;20.016;2022-08-19T07:24:53;19.40;;;12.93;;
54464;SDS011;40374;49.480;20.016;2022-08-19T07:27:20;27.05;;;13.45;;
54464;SDS011;40374;49.480;20.016;2022-08-19T07:29:53;23.67;;;11.55;;
54464;SDS011;40374;49.480;20.016;2022-08-19T07:32:24;25.60;;;12.95;;
54464;SDS011;40374;49.480;20.016;2022-08-19T07:34:55;21.95;;;12.25;;
54464;SDS011;40374;49.480;20.016;2022-08-19T07:37:23;36.97;;;11.55;;
54464;SDS011;40374;49.480;20.016;2022-08-19T07:40:00;32.83;;;12.50;;
54464;SDS011;40374;49.480;20.016;2022-08-19T07:42:28;20.33;;;12.38;;
54464;SDS011;40374;49.480;20.016;2022-08-19T07:44:57;29.20;;;10.40;;
54464;SDS011;40374;49.480;20.016;2022-08-19T07:47:25;25.98;;;10.98;;
54464;SDS011;40374;49.480;20.016;2022-08-19T07:50:15;23.15;;;10.82;;
54464;SDS011;40374;49.480;20.016;2022-08-19T07:52:43;17.50;;;8.43;;
54464;SDS011;40374;49.480;20.016;2022-08-19T07:55:15;13.02;;;8.77;;
54464;SDS011;40374;49.480;20.016;2022-08-19T07:58:03;19.55;;;8.27;;
54464;SDS011;40374;49.480;20.016;2022-08-19T08:00:31;14.90;;;8.02;;
54464;SDS011;40374;49.480;20.016;2022-08-19T08:02:59;11.20;;;7.68;;
54464;SDS011;40374;49.480;20.016;2022-08-19T08:05:26;15.13;;;8.57;;
54464;SDS011;40374;49.480;20.016;2022-08-19T08:08:29;12.85;;;7.90;;
54464;SDS011;40374;49.480;20.016;2022-08-19T08:11:16;12.55;;;7.82;;
54464;SDS011;40374;49.480;20.016;2022-08-19T08:13:46;12.93;;;7.10;;
54464;SDS011;40374;49.480;20.016;2022-08-19T08:16:28;10.73;;;8.98;;
54464;SDS011;40374;49.480;20.016;2022-08-19T08:19:00;17.48;;;7.97;;
54464;SDS011;40374;49.480;20.016;2022-08-19T08:21:27;17.08;;;8.20;;
54464;SDS011;40374;49.480;20.016;2022-08-19T08:23:55;18.35;;;8.07;;
54464;SDS011;40374;49.480;20.016;2022-08-19T08:26:23;18.67;;;7.10;;
54464;SDS011;40374;49.480;20.016;2022-08-19T08:28:51;12.95;;;7.20;;
54464;SDS011;40374;49.480;20.016;2022-08-19T08:31:18;16.50;;;7.32;;
54464;SDS011;40374;49.480;20.016;2022-08-19T08:33:46;17.30;;;6.85;;
54464;SDS011;40374;49.480;20.016;2022-08-19T08:36:15;21.98;;;8.00;;
54464;SDS011;40374;49.480;20.016;2022-08-19T08:38:43;18.55;;;7.78;;
54464;SDS011;40374;49.480;20.016;2022-08-19T08:41:58;10.90;;;6.65;;
54464;SDS011;40374;49.480;20.016;2022-08-19T08:44:04;18.50;;;8.80;;
54464;SDS011;40374;49.480;20.016;2022-08-19T08:51:52;11.43;;;7.00;;
54464;SDS011;40374;49.480;20.016;2022-08-19T08:56:53;16.35;;;7.00;;
54464;SDS011;40374;49.480;20.016;2022-08-19T08:59:30;13.40;;;7.22;;
54464;SDS011;40374;49.480;20.016;2022-08-19T09:02:00;13.35;;;6.78;;
54464;SDS011;40374;49.480;20.016;2022-08-19T09:04:27;15.40;;;7.25;;
54464;SDS011;40374;49.480;20.016;2022-08-19T09:09:27;12.35;;;6.68;;
54464;SDS011;40374;49.480;20.016;2022-08-19T09:14:32;17.88;;;7.75;;
54464;SDS011;40374;49.480;20.016;2022-08-19T09:17:22;20.08;;;7.85;;
54464;SDS011;40374;49.480;20.016;2022-08-19T09:19:59;18.90;;;7.30;;
54464;SDS011;40374;49.480;20.016;2022-08-19T09:22:35;22.05;;;7.47;;
54464;SDS011;40374;49.480;20.016;2022-08-19T09:25:06;19.27;;;7.00;;
54464;SDS011;40374;49.480;20.016;2022-08-19T09:27:35;18.85;;;7.13;;
54464;SDS011;40374;49.480;20.016;2022-08-19T09:30:12;16.10;;;7.35;;
54464;SDS011;40374;49.480;20.016;2022-08-19T09:32:41;26.92;;;8.80;;
54464;SDS011;40374;49.480;20.016;2022-08-19T09:35:10;12.75;;;6.05;;
54464;SDS011;40374;49.480;20.016;2022-08-19T09:37:40;11.43;;;7.22;;
54464;SDS011;40374;49.480;20.016;2022-08-19T09:40:09;12.73;;;6.13;;
54464;SDS011;40374;49.480;20.016;2022-08-19T09:42:38;11.52;;;6.78;;
54464;SDS011;40374;49.480;20.016;2022-08-19T09:45:19;17.85;;;7.30;;
54464;SDS011;40374;49.480;20.016;2022-08-19T09:47:50;10.18;;;6.22;;
54464;SDS011;40374;49.480;20.016;2022-08-19T09:50:20;15.93;;;6.15;;
54464;SDS011;40374;49.480;20.016;2022-08-19T09:52:49;10.38;;;5.80;;
54464;SDS011;40374;49.480;20.016;2022-08-19T09:55:24;18.40;;;6.18;;
54464;SDS011;40374;49.480;20.016;2022-08-19T09:58:01;8.43;;;5.55;;
54464;SDS011;40374;49.480;20.016;2022-08-19T10:00:29;12.90;;;5.65;;
54464;SDS011;40374;49.480;20.016;2022-08-19T10:02:57;14.07;;;5.95;;
54464;SDS011;40374;49.480;20.016;2022-08-19T10:05:25;10.52;;;5.78;;
54464;SDS011;40374;49.480;20.016;2022-08-19T10:08:16;11.82;;;5.43;;
54464;SDS011;40374;49.480;20.016;2022-08-19T10:10:46;12.85;;;6.78;;
54464;SDS011;40374;49.480;20.016;2022-08-19T10:13:15;17.70;;;6.60;;
54464;SDS011;40374;49.480;20.016;2022-08-19T10:15:43;14.10;;;6.35;;
54464;SDS011;40374;49.480;20.016;2022-08-19T10:18:15;12.70;;;6.18;;
54464;SDS011;40374;49.480;20.016;2022-08-19T10:20:47;26.75;;;6.57;;
54464;SDS011;40374;49.480;20.016;2022-08-19T10:23:19;15.20;;;6.10;;
54464;SDS011;40374;49.480;20.016;2022-08-19T10:25:47;14.35;;;5.93;;
54464;SDS011;40374;49.480;20.016;2022-08-19T10:28:16;12.98;;;5.03;;
54464;SDS011;40374;49.480;20.016;2022-08-19T10:30:46;15.23;;;5.95;;
54464;SDS011;40374;49.480;20.016;2022-08-19T10:33:14;10.25;;;5.25;;
54464;SDS011;40374;49.480;20.016;2022-08-19T10:36:03;9.10;;;5.45;;
54464;SDS011;40374;49.480;20.016;2022-08-19T10:38:31;19.08;;;5.80;;
54464;SDS011;40374;49.480;20.016;2022-08-19T10:41:11;19.63;;;5.70;;
54464;SDS011;40374;49.480;20.016;2022-08-19T10:43:40;10.40;;;4.82;;
54464;SDS011;40374;49.480;20.016;2022-08-19T10:46:09;13.80;;;4.95;;
54464;SDS011;40374;49.480;20.016;2022-08-19T10:48:43;13.65;;;4.90;;
54464;SDS011;40374;49.480;20.016;2022-08-19T10:51:11;19.20;;;5.97;;
54464;SDS011;40374;49.480;20.016;2022-08-19T10:54:00;16.02;;;4.85;;
54464;SDS011;40374;49.480;20.016;2022-08-19T10:56:32;10.02;;;4.47;;
54464;SDS011;40374;49.480;20.016;2022-08-19T10:59:24;20.95;;;5.00;;
54464;SDS011;40374;49.480;20.016;2022-08-19T11:01:53;9.77;;;4.93;;
54464;SDS011;40374;49.480;20.016;2022-08-19T11:04:24;13.18;;;5.00;;
54464;SDS011;40374;49.480;20.016;2022-08-19T11:06:56;8.80;;;4.75;;
54464;SDS011;40374;49.480;20.016;2022-08-19T11:09:24;26.63;;;5.18;;
54464;SDS011;40374;49.480;20.016;2022-08-19T11:12:00;10.75;;;4.90;;
54464;SDS011;40374;49.480;20.016;2022-08-19T11:14:30;9.43;;;4.78;;
54464;SDS011;40374;49.480;20.016;2022-08-19T11:17:00;12.85;;;5.10;;
54464;SDS011;40374;49.480;20.016;2022-08-19T11:19:30;10.70;;;4.95;;
54464;SDS011;40374;49.480;20.016;2022-08-19T11:21:57;10.18;;;4.60;;
54464;SDS011;40374;49.480;20.016;2022-08-19T11:24:26;15.20;;;4.32;;
54464;SDS011;40374;49.480;20.016;2022-08-19T11:26:55;13.40;;;3.60;;
54464;SDS011;40374;49.480;20.016;2022-08-19T11:29:28;18.80;;;4.07;;
54464;SDS011;40374;49.480;20.016;2022-08-19T11:31:58;9.68;;;4.40;;
54464;SDS011;40374;49.480;20.016;2022-08-19T11:34:26;16.70;;;3.92;;
54464;SDS011;40374;49.480;20.016;2022-08-19T11:36:55;15.70;;;4.95;;
54464;SDS011;40374;49.480;20.016;2022-08-19T11:39:28;19.08;;;5.05;;
54464;SDS011;40374;49.480;20.016;2022-08-19T11:41:57;11.85;;;4.10;;
54464;SDS011;40374;49.480;20.016;2022-08-19T11:44:27;15.20;;;4.43;;
54464;SDS011;40374;49.480;20.016;2022-08-19T11:46:57;15.82;;;4.55;;
54464;SDS011;40374;49.480;20.016;2022-08-19T11:49:34;7.53;;;3.97;;
54464;SDS011;40374;49.480;20.016;2022-08-19T11:52:03;11.70;;;4.60;;
54464;SDS011;40374;49.480;20.016;2022-08-19T11:54:30;11.15;;;4.63;;
54464;SDS011;40374;49.480;20.016;2022-08-19T11:56:57;15.82;;;4.57;;
54464;SDS011;40374;49.480;20.016;2022-08-19T11:59:25;19.38;;;6.03;;
54464;SDS011;40374;49.480;20.016;2022-08-19T12:01:56;12.18;;;4.55;;
54464;SDS011;40374;49.480;20.016;2022-08-19T12:04:24;18.55;;;5.20;;
54464;SDS011;40374;49.480;20.016;2022-08-19T12:06:51;9.13;;;4.38;;
54464;SDS011;40374;49.480;20.016;2022-08-19T12:09:20;13.02;;;4.40;;
54464;SDS011;40374;49.480;20.016;2022-08-19T12:11:49;8.38;;;3.92;;
54464;SDS011;40374;49.480;20.016;2022-08-19T12:14:17;9.75;;;4.47;;
54464;SDS011;40374;49.480;20.016;2022-08-19T12:16:46;8.07;;;4.68;;
54464;SDS011;40374;49.480;20.016;2022-08-19T12:19:18;24.02;;;5.15;;
54464;SDS011;40374;49.480;20.016;2022-08-19T12:21:48;15.20;;;5.35;;
54464;SDS011;40374;49.480;20.016;2022-08-19T12:24:16;13.25;;;4.55;;
54464;SDS011;40374;49.480;20.016;2022-08-19T12:26:54;14.23;;;4.20;;
54464;SDS011;40374;49.480;20.016;2022-08-19T12:29:28;8.93;;;3.83;;
54464;SDS011;40374;49.480;20.016;2022-08-19T12:31:58;7.03;;;3.90;;
54464;SDS011;40374;49.480;20.016;2022-08-19T12:34:34;11.90;;;4.53;;
54464;SDS011;40374;49.480;20.016;2022-08-19T12:39:37;14.82;;;4.10;;
54464;SDS011;40374;49.480;20.016;2022-08-19T12:42:06;16.10;;;4.68;;
54464;SDS011;40374;49.480;20.016;2022-08-19T12:44:36;13.05;;;3.53;;
54464;SDS011;40374;49.480;20.016;2022-08-19T12:47:08;10.95;;;3.65;;
54464;SDS011;40374;49.480;20.016;2022-08-19T12:49:36;17.10;;;3.97;;
54464;SDS011;40374;49.480;20.016;2022-08-19T12:52:23;12.90;;;4.03;;
54464;SDS011;40374;49.480;20.016;2022-08-19T12:54:51;14.35;;;4.05;;
54464;SDS011;40374;49.480;20.016;2022-08-19T12:57:21;9.77;;;4.30;;
54464;SDS011;40374;49.480;20.016;2022-08-19T13:00:09;14.65;;;3.80;;
54464;SDS011;40374;49.480;20.016;2022-08-19T13:02:38;12.40;;;3.85;;
54464;SDS011;40374;49.480;20.016;2022-08-19T13:05:16;10.15;;;4.05;;
54464;SDS011;40374;49.480;20.016;2022-08-19T13:07:44;14.23;;;4.35;;
54464;SDS011;40374;49.480;20.016;2022-08-19T13:10:13;26.88;;;4.88;;
54464;SDS011;40374;49.480;20.016;2022-08-19T13:12:46;17.02;;;4.05;;
54464;SDS011;40374;49.480;20.016;2022-08-19T13:15:15;12.20;;;3.90;;
54464;SDS011;40374;49.480;20.016;2022-08-19T13:17:50;13.20;;;4.13;;
54464;SDS011;40374;49.480;20.016;2022-08-19T13:20:19;12.23;;;4.57;;
54464;SDS011;40374;49.480;20.016;2022-08-19T13:22:48;9.05;;;5.10;;
54464;SDS011;40374;49.480;20.016;2022-08-19T13:25:17;14.07;;;5.25;;
54464;SDS011;40374;49.480;20.016;2022-08-19T13:27:47;7.93;;;3.55;;
54464;SDS011;40374;49.480;20.016;2022-08-19T13:30:16;13.30;;;4.00;;
54464;SDS011;40374;49.480;20.016;2022-08-19T13:33:03;12.95;;;4.07;;
54464;SDS011;40374;49.480;20.016;2022-08-19T13:38:12;14.30;;;4.30;;
54464;SDS011;40374;49.480;20.016;2022-08-19T13:40:41;9.85;;;4.30;;
54464;SDS011;40374;49.480;20.016;2022-08-19T13:43:09;10.05;;;4.40;;
54464;SDS011;40374;49.480;20.016;2022-08-19T13:45:53;13.68;;;4.50;;
54464;SDS011;40374;49.480;20.016;2022-08-19T13:48:23;11.85;;;4.07;;
54464;SDS011;40374;49.480;20.016;2022-08-19T13:50:52;7.18;;;4.32;;
54464;SDS011;40374;49.480;20.016;2022-08-19T13:53:21;10.48;;;4.50;;
54464;SDS011;40374;49.480;20.016;2022-08-19T13:55:48;9.45;;;4.55;;
54464;SDS011;40374;49.480;20.016;2022-08-19T13:58:17;11.75;;;5.65;;
54464;SDS011;40374;49.480;20.016;2022-08-19T14:00:45;13.38;;;4.93;;
54464;SDS011;40374;49.480;20.016;2022-08-19T14:03:13;13.90;;;5.70;;
54464;SDS011;40374;49.480;20.016;2022-08-19T14:05:40;13.55;;;6.30;;
54464;SDS011;40374;49.480;20.016;2022-08-19T14:08:08;11.38;;;4.88;;
54464;SDS011;40374;49.480;20.016;2022-08-19T14:10:36;16.73;;;6.20;;
54464;SDS011;40374;49.480;20.016;2022-08-19T14:13:03;12.05;;;5.30;;
54464;SDS011;40374;49.480;20.016;2022-08-19T14:15:31;17.63;;;6.07;;
54464;SDS011;40374;49.480;20.016;2022-08-19T14:17:58;15.57;;;6.38;;
54464;SDS011;40374;49.480;20.016;2022-08-19T14:20:25;19.58;;;6.60;;
54464;SDS011;40374;49.480;20.016;2022-08-19T14:22:53;10.20;;;6.05;;
54464;SDS011;40374;49.480;20.016;2022-08-19T14:25:22;14.13;;;6.20;;
54464;SDS011;40374;49.480;20.016;2022-08-19T14:27:54;15.02;;;6.30;;
54464;SDS011;40374;49.480;20.016;2022-08-19T14:30:27;10.55;;;5.45;;
54464;SDS011;40374;49.480;20.016;2022-08-19T14:32:55;19.33;;;6.25;;
54464;SDS011;40374;49.480;20.016;2022-08-19T14:35:23;9.95;;;5.63;;
54464;SDS011;40374;49.480;20.016;2022-08-19T14:37:51;10.13;;;5.63;;
54464;SDS011;40374;49.480;20.016;2022-08-19T14:40:21;11.40;;;5.97;;
54464;SDS011;40374;49.480;20.016;2022-08-19T14:42:52;12.90;;;5.57;;
54464;SDS011;40374;49.480;20.016;2022-08-19T14:45:22;10.75;;;5.55;;
54464;SDS011;40374;49.480;20.016;2022-08-19T14:47:50;13.27;;;6.30;;
54464;SDS011;40374;49.480;20.016;2022-08-19T14:50:17;14.98;;;6.30;;
54464;SDS011;40374;49.480;20.016;2022-08-19T14:52:46;17.25;;;6.53;;
54464;SDS011;40374;49.480;20.016;2022-08-19T14:55:15;14.80;;;6.60;;